Time;durP1;ratioP1;P1;durP2;ratioP2;P2;SDS_P1;SDS_P2;PMS_P1;PMS_P2;Temp;Humidity;BMP_temperature;BMP_pressure;BME280_temperature;BME280_humidity;BME280_pressure;Samples;Min_cycle;Max_cycle;Signal;HPM_P1;HPM_P2
2023/09/30 00:02:26;;;;;;;;;;;;;;;16.15;100.00;96434.53;10358264;28;2550;-73
2023/09/30 00:07:28;;;;;;;;;;;;;;;16.09;100.00;96437.59;10366405;28;1870;-74
2023/09/30 00:12:31;;;;;;;;;;;;;;;16.04;100.00;96435.78;10359987;28;2190;-77
2023/09/30 00:17:34;;;;;;;;;;;;;;;16.01;100.00;96435.53;10353769;28;1952;-74
2023/09/30 00:22:36;;;;;;;;;;;;;;;16.02;100.00;96442.59;10349963;28;2107;-75
2023/09/30 00:27:39;;;;;;;;;;;;;;;15.92;100.00;96444.34;10351412;28;2024;-74
2023/09/30 00:32:46;;;;;;;;;;;;;;;15.91;100.00;96455.47;10352201;28;2288;-76
2023/09/30 00:37:49;;;;;;;;;;;;;;;15.86;100.00;96447.41;10353193;28;1948;-76
2023/09/30 00:42:51;;;;;;;;;;;;;;;16.08;100.00;96452.25;10355881;28;4611;-73
2023/09/30 00:47:54;;;;;;;;;;;;;;;16.12;100.00;96454.09;10359627;28;2568;-73
2023/09/30 00:52:57;;;;;;;;;;;;;;;16.04;100.00;96456.69;10352887;28;1989;-76
2023/09/30 00:57:59;;;;;;;;;;;;;;;16.01;100.00;96451.81;10356548;28;1916;-74
2023/09/30 01:03:03;;;;;;;;;;;;;;;15.98;100.00;96453.22;10353087;28;1938;-73
2023/09/30 01:08:06;;;;;;;;;;;;;;;15.94;100.00;96468.44;10354738;28;1955;-72
2023/09/30 01:13:09;;;;;;;;;;;;;;;16.04;100.00;96473.75;10355857;28;1942;-72
2023/09/30 01:18:12;;;;;;;;;;;;;;;16.18;100.00;96469.22;10362922;28;2044;-73
2023/09/30 01:23:14;;;;;;;;;;;;;;;16.19;100.00;96456.47;10348300;28;2094;-72
2023/09/30 01:28:17;;;;;;;;;;;;;;;16.17;100.00;96445.91;10344508;28;2043;-73
2023/09/30 01:33:19;;;;;;;;;;;;;;;16.20;100.00;96453.44;10349068;28;2688;-73
2023/09/30 01:38:22;;;;;;;;;;;;;;;16.25;100.00;96457.19;10357617;28;1957;-74
2023/09/30 01:43:24;;;;;;;;;;;;;;;16.15;100.00;96472.50;10357300;28;4611;-73
2023/09/30 01:48:27;;;;;;;;;;;;;;;16.08;100.00;96463.91;10356280;28;2001;-74
2023/09/30 01:53:29;;;;;;;;;;;;;;;15.91;100.00;96464.41;10355290;28;2104;-72
2023/09/30 01:58:32;;;;;;;;;;;;;;;15.89;100.00;96473.94;10355905;28;1985;-73
2023/09/30 02:03:35;;;;;;;;;;;;;;;15.82;100.00;96454.50;10357130;28;1963;-71
2023/09/30 02:08:39;;;;;;;;;;;;;;;15.92;100.00;96459.81;10356607;28;2095;-71
2023/09/30 02:13:42;;;;;;;;;;;;;;;16.03;100.00;96465.88;10359047;28;2070;-73
2023/09/30 02:18:45;;;;;;;;;;;;;;;15.93;100.00;96470.34;10350933;28;2639;-73
2023/09/30 02:23:48;;;;;;;;;;;;;;;16.03;100.00;96463.16;10365106;28;2058;-73
2023/09/30 02:28:51;;;;;;;;;;;;;;;16.18;100.00;96458.38;10350596;28;1920;-74
2023/09/30 02:33:53;;;;;;;;;;;;;;;16.00;100.00;96467.28;10351402;28;2049;-73
2023/09/30 02:38:56;;;;;;;;;;;;;;;16.23;100.00;96467.53;10346301;28;1912;-73
2023/09/30 02:43:58;;;;;;;;;;;;;;;16.18;100.00;96463.78;10349790;28;4615;-74
2023/09/30 02:49:00;;;;;;;;;;;;;;;16.15;100.00;96458.94;10350799;28;1955;-73
2023/09/30 02:54:03;;;;;;;;;;;;;;;16.12;100.00;96464.97;10367124;28;2074;-73
2023/09/30 02:59:07;;;;;;;;;;;;;;;16.07;100.00;96462.31;10347750;28;2124;-72
2023/09/30 03:04:12;;;;;;;;;;;;;;;16.12;100.00;96470.38;10356047;28;1949;-73
2023/09/30 03:09:17;;;;;;;;;;;;;;;16.13;100.00;96466.56;10350497;28;1974;-72
2023/09/30 03:14:19;;;;;;;;;;;;;;;16.18;100.00;96462.97;10364712;28;1968;-72
2023/09/30 03:19:23;;;;;;;;;;;;;;;16.08;100.00;96460.41;10351344;28;2818;-71
2023/09/30 03:24:26;;;;;;;;;;;;;;;16.13;100.00;96466.56;10351344;28;2000;-73
2023/09/30 03:29:29;;;;;;;;;;;;;;;15.97;100.00;96467.03;10345595;28;1959;-73
2023/09/30 03:34:31;;;;;;;;;;;;;;;15.79;100.00;96482.19;10353520;28;2203;-74
2023/09/30 03:39:34;;;;;;;;;;;;;;;15.71;100.00;96475.50;10351921;28;1895;-74
2023/09/30 03:44:37;;;;;;;;;;;;;;;15.77;100.00;96473.53;10348920;28;4595;-74
2023/09/30 03:49:40;;;;;;;;;;;;;;;15.86;100.00;96469.09;10349449;28;1896;-73
2023/09/30 03:54:42;;;;;;;;;;;;;;;15.83;100.00;96472.38;10359807;28;1928;-74
2023/09/30 03:59:46;;;;;;;;;;;;;;;16.01;100.00;96482.44;10356560;28;1971;-74
2023/09/30 04:04:50;;;;;;;;;;;;;;;16.18;100.00;96469.22;10365852;28;2380;-74
2023/09/30 04:09:53;;;;;;;;;;;;;;;16.27;100.00;96471.25;10354209;28;2043;-74
2023/09/30 04:14:55;;;;;;;;;;;;;;;16.40;100.00;96465.09;10354414;28;2228;-73
2023/09/30 04:19:58;;;;;;;;;;;;;;;16.33;100.00;96470.09;10354851;28;1971;-73
2023/09/30 04:25:00;;;;;;;;;;;;;;;16.32;100.00;96473.91;10356951;28;1916;-72
2023/09/30 04:30:08;;;;;;;;;;;;;;;16.18;100.00;96469.22;10352180;28;2012;-74
2023/09/30 04:35:11;;;;;;;;;;;;;;;16.12;100.00;96466.88;10346583;28;2131;-73
2023/09/30 04:40:15;;;;;;;;;;;;;;;16.10;100.00;96482.63;10354257;28;4654;-75
2023/09/30 04:45:22;;;;;;;;;;;;;;;16.16;100.00;96487.69;10357818;28;2024;-72
2023/09/30 04:50:25;;;;;;;;;;;;;;;16.17;100.00;96494.72;10356276;28;2651;-76
2023/09/30 04:55:28;;;;;;;;;;;;;;;16.10;100.00;96504.31;10356377;28;2042;-73
2023/09/30 05:00:30;;;;;;;;;;;;;;;15.98;100.00;96490.38;10370964;28;1987;-74
2023/09/30 05:05:34;;;;;;;;;;;;;;;15.81;100.00;96502.50;10345817;28;1882;-74
2023/09/30 05:10:38;;;;;;;;;;;;;;;15.62;100.00;96499.72;10366603;28;1968;-73
2023/09/30 05:15:41;;;;;;;;;;;;;;;15.54;100.00;96516.59;10351685;28;2156;-72
2023/09/30 05:20:44;;;;;;;;;;;;;;;15.60;100.00;96523.56;10351731;28;1885;-73
2023/09/30 05:25:46;;;;;;;;;;;;;;;15.75;100.00;96517.19;10365646;28;1947;-73
2023/09/30 05:30:50;;;;;;;;;;;;;;;15.84;100.00;96517.34;10353153;28;1991;-73
2023/09/30 05:35:54;;;;;;;;;;;;;;;15.82;100.00;96514.94;10359128;28;2671;-74
2023/09/30 05:40:58;;;;;;;;;;;;;;;15.64;100.00;96518.41;10353675;28;4694;-73
2023/09/30 05:46:01;;;;;;;;;;;;;;;15.53;100.00;96533.13;10344403;28;2019;-72
2023/09/30 05:51:05;;;;;;;;;;;;;;;15.46;100.00;96546.19;10350175;28;1909;-73
2023/09/30 05:56:10;;;;;;;;;;;;;;;15.42;100.00;96562.22;10351971;28;2222;-74
2023/09/30 06:01:12;;;;;;;;;;;;;;;15.70;100.00;96548.97;10353461;28;2024;-76
2023/09/30 06:06:15;;;;;;;;;;;;;;;15.96;100.00;96544.88;10351212;28;1912;-74
2023/09/30 06:11:24;;;;;;;;;;;;;;;16.01;100.00;96544.00;10367646;28;1979;-74
2023/09/30 06:16:27;;;;;;;;;;;;;;;16.09;100.00;96541.47;10354908;28;1958;-73
2023/09/30 06:21:29;;;;;;;;;;;;;;;15.88;100.00;96543.63;10347867;28;2633;-77
2023/09/30 06:26:32;;;;;;;;;;;;;;;15.68;100.00;96546.56;10346913;28;2204;-72
2023/09/30 06:31:35;;;;;;;;;;;;;;;15.76;100.00;96553.25;10358895;28;1924;-72
2023/09/30 06:36:38;;;;;;;;;;;;;;;15.81;100.00;96583.00;10345958;28;1991;-73
2023/09/30 06:41:40;;;;;;;;;;;;;;;16.02;100.00;96587.09;10353435;28;4555;-74
2023/09/30 06:46:43;;;;;;;;;;;;;;;15.95;100.00;96583.94;10342891;28;2072;-72
2023/09/30 06:51:46;;;;;;;;;;;;;;;15.99;100.00;96582.28;10357418;28;1841;-73
2023/09/30 06:56:48;;;;;;;;;;;;;;;16.15;100.00;96583.69;10352571;28;1926;-74
2023/09/30 07:01:51;;;;;;;;;;;;;;;16.06;100.00;96585.44;10355314;28;2159;-75
2023/09/30 07:06:53;;;;;;;;;;;;;;;16.12;100.00;96587.00;10360803;28;2596;-72
2023/09/30 07:11:57;;;;;;;;;;;;;;;16.30;100.00;96609.88;10350316;28;1965;-72
2023/09/30 07:16:59;;;;;;;;;;;;;;;16.32;100.00;96604.13;10344605;28;1935;-73
2023/09/30 07:22:02;;;;;;;;;;;;;;;16.63;100.00;96610.78;10351146;28;1971;-73
2023/09/30 07:27:07;;;;;;;;;;;;;;;16.66;100.00;96609.41;10366292;28;2053;-74
2023/09/30 07:32:26;;;;;;;;;;;;;;;16.44;100.00;96597.19;10356370;28;1931;-74
2023/09/30 07:37:28;;;;;;;;;;;;;;;16.40;100.00;96627.91;10363349;28;1914;-73
2023/09/30 07:42:30;;;;;;;;;;;;;;;16.56;100.00;96626.63;10356926;28;2037;-74
2023/09/30 07:47:33;;;;;;;;;;;;;;;16.87;100.00;96631.69;10359258;28;1951;-74
2023/09/30 07:52:36;;;;;;;;;;;;;;;17.24;100.00;96631.69;10354650;28;2580;-75
2023/09/30 07:57:39;;;;;;;;;;;;;;;17.34;100.00;96633.44;10350324;28;2151;-74
2023/09/30 08:02:42;;;;;;;;;;;;;;;17.14;100.00;96633.75;10359577;28;1855;-73
2023/09/30 08:07:45;;;;;;;;;;;;;;;17.41;100.00;96646.66;10366266;28;1932;-73
2023/09/30 08:12:49;;;;;;;;;;;;;;;17.88;100.00;96650.25;10357627;28;1956;-73
2023/09/30 08:17:52;;;;;;;;;;;;;;;17.88;100.00;96633.94;10358325;28;1934;-73
2023/09/30 08:22:54;;;;;;;;;;;;;;;17.68;100.00;96633.13;10350508;28;1947;-74
2023/09/30 08:27:57;;;;;;;;;;;;;;;17.88;100.00;96620.31;10350702;28;1968;-74
2023/09/30 08:33:00;;;;;;;;;;;;;;;17.68;100.00;96635.88;10365866;28;1906;-73
2023/09/30 08:38:02;;;;;;;;;;;;;;;17.35;100.00;96645.91;10363939;28;2698;-74
2023/09/30 08:43:05;;;;;;;;;;;;;;;18.09;100.00;96663.19;10342970;28;4751;-74
2023/09/30 08:48:08;;;;;;;;;;;;;;;18.95;100.00;96659.09;10357829;28;1930;-72
2023/09/30 08:53:10;;;;;;;;;;;;;;;18.89;100.00;96664.66;10356185;28;1897;-72
2023/09/30 08:58:13;;;;;;;;;;;;;;;18.20;100.00;96657.59;10360752;28;1985;-72
2023/09/30 09:03:15;;;;;;;;;;;;;;;18.06;100.00;96652.91;10352844;28;1814;-73
2023/09/30 09:08:23;;;;;;;;;;;;;;;17.94;100.00;96621.84;10364104;28;1965;-74
2023/09/30 09:13:27;;;;;;;;;;;;;;;17.48;100.00;96636.19;10352700;28;1797;-74
2023/09/30 09:18:30;;;;;;;;;;;;;;;18.06;100.00;96641.22;10354272;28;1989;-72
2023/09/30 09:23:33;;;;;;;;;;;;;;;18.73;100.00;96638.84;10359771;28;2745;-73
2023/09/30 09:28:36;;;;;;;;;;;;;;;18.94;100.00;96647.38;10355406;28;1877;-72
2023/09/30 09:33:39;;;;;;;;;;;;;;;19.19;100.00;96646.00;10356019;28;1877;-71
2023/09/30 09:38:42;;;;;;;;;;;;;;;19.78;100.00;96656.91;10352353;28;1909;-72
2023/09/30 09:43:44;;;;;;;;;;;;;;;19.79;100.00;96640.25;10348249;28;4605;-73
2023/09/30 09:48:48;;;;;;;;;;;;;;;19.80;100.00;96611.06;10346350;28;1896;-73
2023/09/30 09:53:51;;;;;;;;;;;;;;;20.45;100.00;96597.56;10347934;28;1889;-70
2023/09/30 09:58:54;;;;;;;;;;;;;;;20.45;100.00;96586.63;10360290;28;1922;-74
2023/09/30 10:04:02;;;;;;;;;;;;;;;20.23;100.00;96600.31;10349634;28;1958;-72
2023/09/30 10:09:04;;;;;;;;;;;;;;;20.25;100.00;96598.09;10362916;28;2705;-74
2023/09/30 10:14:14;;;;;;;;;;;;;;;20.11;100.00;96606.41;10361029;28;1855;-72
2023/09/30 10:19:17;;;;;;;;;;;;;;;19.69;100.00;96607.75;10347621;28;1985;-71
2023/09/30 10:24:20;;;;;;;;;;;;;;;19.77;100.00;96611.66;10345205;28;1929;-73
2023/09/30 10:29:23;;;;;;;;;;;;;;;19.93;100.00;96605.50;10349442;28;1858;-69
2023/09/30 10:34:26;;;;;;;;;;;;;;;20.05;100.00;96596.72;10351165;28;2117;-71
2023/09/30 10:39:28;;;;;;;;;;;;;;;19.88;100.00;96589.25;10346613;28;1941;-72
2023/09/30 10:44:31;;;;;;;;;;;;;;;19.91;100.00;96580.47;10350575;28;4607;-72
2023/09/30 10:49:34;;;;;;;;;;;;;;;19.56;100.00;96589.53;10355873;28;1885;-73
2023/09/30 10:54:37;;;;;;;;;;;;;;;19.71;100.00;96602.78;10360546;28;2635;-70
2023/09/30 10:59:39;;;;;;;;;;;;;;;19.79;100.00;96604.00;10373926;28;1934;-69
2023/09/30 11:04:41;;;;;;;;;;;;;;;19.85;100.00;96609.00;10365231;28;1795;-70
2023/09/30 11:09:44;;;;;;;;;;;;;;;19.49;100.00;96591.88;10368812;28;1846;-71
2023/09/30 11:14:47;;;;;;;;;;;;;;;19.63;100.00;96565.38;10350360;28;1932;-72
2023/09/30 11:19:49;;;;;;;;;;;;;;;19.49;100.00;96583.72;10356333;28;1854;-70
2023/09/30 11:24:52;;;;;;;;;;;;;;;19.49;100.00;96575.53;10347561;28;1885;-69
2023/09/30 11:29:57;;;;;;;;;;;;;;;20.44;100.00;96573.25;10344982;28;1905;-70
2023/09/30 11:35:00;;;;;;;;;;;;;;;20.45;100.00;96572.16;10353392;28;1906;-71
2023/09/30 11:40:02;;;;;;;;;;;;;;;19.90;100.00;96587.00;10351960;28;2465;-74
2023/09/30 11:45:05;;;;;;;;;;;;;;;19.81;100.00;96585.38;10348283;28;2109;-72
2023/09/30 11:50:08;;;;;;;;;;;;;;;19.49;100.00;96591.88;10344656;28;2187;-72
2023/09/30 11:55:12;;;;;;;;;;;;;;;19.92;100.00;96582.06;10348869;28;1911;-73
2023/09/30 12:00:15;;;;;;;;;;;;;;;19.74;100.00;96577.63;10339112;28;1846;-75
2023/09/30 12:05:17;;;;;;;;;;;;;;;19.74;100.00;96565.94;10355565;28;1936;-70
2023/09/30 12:10:20;;;;;;;;;;;;;;;19.53;100.00;96543.78;10351501;28;1935;-70
2023/09/30 12:15:24;;;;;;;;;;;;;;;18.98;100.00;96530.44;10359247;28;1973;-73
2023/09/30 12:20:30;;;;;;;;;;;;;;;19.34;100.00;96533.06;10347613;28;1810;-72
2023/09/30 12:25:33;;;;;;;;;;;;;;;19.08;100.00;96530.16;10352984;28;2557;-69
2023/09/30 12:30:36;;;;;;;;;;;;;;;19.69;100.00;96531.41;10356016;28;1861;-68
2023/09/30 12:35:39;;;;;;;;;;;;;;;19.71;100.00;96529.94;10358336;28;1910;-71
2023/09/30 12:40:43;;;;;;;;;;;;;;;19.75;100.00;96524.69;10361514;28;1842;-70
2023/09/30 12:45:46;;;;;;;;;;;;;;;20.32;100.00;96527.44;10366064;28;1943;-70
2023/09/30 12:50:51;;;;;;;;;;;;;;;21.16;100.00;96520.00;10358790;28;1779;-71
2023/09/30 12:55:54;;;;;;;;;;;;;;;21.42;100.00;96523.50;10372748;28;2100;-70
2023/09/30 13:00:56;;;;;;;;;;;;;;;21.45;100.00;96527.53;10357949;28;1809;-69
2023/09/30 13:06:17;;;;;;;;;;;;;;;21.41;100.00;96538.31;10345710;28;2015;-70
2023/09/30 13:11:19;;;;;;;;;;;;;;;20.39;100.00;96540.63;10356046;28;2593;-70
2023/09/30 13:16:22;;;;;;;;;;;;;;;20.18;100.00;96533.03;10353959;28;1991;-70
2023/09/30 13:21:25;;;;;;;;;;;;;;;20.07;100.00;96522.72;10345312;28;1933;-72
2023/09/30 13:26:30;;;;;;;;;;;;;;;20.50;100.00;96507.28;10348406;28;2035;-71
2023/09/30 13:31:33;;;;;;;;;;;;;;;20.43;100.00;96506.94;10346911;28;1983;-72
2023/09/30 13:36:38;;;;;;;;;;;;;;;20.47;100.00;96505.19;10346294;28;1973;-72
2023/09/30 13:41:41;;;;;;;;;;;;;;;20.73;100.00;96501.66;10351374;28;4649;-71
2023/09/30 13:46:43;;;;;;;;;;;;;;;20.82;100.00;96505.22;10353666;28;1898;-71
2023/09/30 13:51:46;;;;;;;;;;;;;;;21.08;100.00;96496.19;10354047;28;1997;-72
2023/09/30 13:56:51;;;;;;;;;;;;;;;20.71;100.00;96482.06;10356785;28;2941;-72
2023/09/30 14:01:54;;;;;;;;;;;;;;;21.09;100.00;96481.41;10351185;28;1953;-73
2023/09/30 14:06:57;;;;;;;;;;;;;;;20.89;100.00;96489.13;10360710;28;1747;-72
2023/09/30 14:11:59;;;;;;;;;;;;;;;20.96;100.00;96499.59;10353226;28;2121;-73
2023/09/30 14:17:07;;;;;;;;;;;;;;;20.74;100.00;96481.41;10358800;28;1918;-73
2023/09/30 14:22:09;;;;;;;;;;;;;;;20.26;100.00;96485.03;10349977;28;2074;-72
2023/09/30 14:27:14;;;;;;;;;;;;;;;19.75;100.00;96491.94;10355049;28;1900;-74
2023/09/30 14:32:16;;;;;;;;;;;;;;;19.72;100.00;96487.09;10350946;28;2010;-71
2023/09/30 14:37:18;;;;;;;;;;;;;;;19.62;100.00;96484.69;10349537;28;1983;-72
2023/09/30 14:42:22;;;;;;;;;;;;;;;19.88;100.00;96480.13;10363952;28;4734;-73
2023/09/30 14:47:24;;;;;;;;;;;;;;;20.10;100.00;96487.41;10348158;28;1822;-72
2023/09/30 14:52:26;;;;;;;;;;;;;;;20.12;100.00;96478.91;10340889;28;1804;-74
2023/09/30 14:57:29;;;;;;;;;;;;;;;20.22;100.00;96475.88;10364881;28;1940;-73
2023/09/30 15:02:32;;;;;;;;;;;;;;;19.75;100.00;96480.25;10352884;28;1876;-73
2023/09/30 15:07:37;;;;;;;;;;;;;;;19.57;100.00;96501.13;10368027;28;1865;-73
2023/09/30 15:12:39;;;;;;;;;;;;;;;19.45;100.00;96486.16;10355862;28;1878;-71
2023/09/30 15:17:42;;;;;;;;;;;;;;;19.21;100.00;96488.41;10352641;28;2083;-72
2023/09/30 15:22:45;;;;;;;;;;;;;;;19.15;100.00;96486.97;10359522;28;1755;-75
2023/09/30 15:27:47;;;;;;;;;;;;;;;19.16;100.00;96483.94;10353643;28;1810;-75
2023/09/30 15:32:50;;;;;;;;;;;;;;;19.25;100.00;96481.25;10351072;28;1873;-72
2023/09/30 15:37:52;;;;;;;;;;;;;;;19.29;100.00;96487.69;10352804;28;2447;-74
2023/09/30 15:42:55;;;;;;;;;;;;;;;19.14;100.00;96482.59;10356398;28;4647;-74
2023/09/30 15:47:58;;;;;;;;;;;;;;;19.02;100.00;96487.81;10355474;28;1893;-76
2023/09/30 15:53:00;;;;;;;;;;;;;;;18.63;100.00;96486.53;10351886;28;1857;-73
2023/09/30 15:58:03;;;;;;;;;;;;;;;18.50;100.00;96492.81;10357678;28;1966;-76
2023/09/30 16:03:05;;;;;;;;;;;;;;;18.16;100.00;96498.75;10358266;28;1913;-74
2023/09/30 16:08:08;;;;;;;;;;;;;;;18.02;100.00;96505.00;10360950;28;1802;-73
2023/09/30 16:13:11;;;;;;;;;;;;;;;17.95;100.00;96514.69;10361165;28;1917;-75
2023/09/30 16:18:14;;;;;;;;;;;;;;;17.85;100.00;96507.53;10367490;28;1950;-77
2023/09/30 16:23:16;;;;;;;;;;;;;;;17.86;100.00;96513.75;10360743;28;1786;-77
2023/09/30 16:28:18;;;;;;;;;;;;;;;17.79;100.00;96520.41;10353350;28;2097;-75
2023/09/30 16:33:24;;;;;;;;;;;;;;;17.74;100.00;96520.50;10354252;28;1774;-74
2023/09/30 16:38:28;;;;;;;;;;;;;;;17.66;100.00;96504.06;10348065;28;2835;-73
2023/09/30 16:43:31;;;;;;;;;;;;;;;17.66;100.00;96507.56;10349804;28;4666;-73
2023/09/30 16:48:33;;;;;;;;;;;;;;;17.52;100.00;96513.00;10354960;28;1799;-74
2023/09/30 16:53:37;;;;;;;;;;;;;;;17.51;100.00;96516.03;10368010;28;1983;-75
2023/09/30 16:58:39;;;;;;;;;;;;;;;17.41;100.00;96511.56;10354777;28;2059;-74
2023/09/30 17:03:42;;;;;;;;;;;;;;;17.39;100.00;96515.69;10351666;28;1825;-74
2023/09/30 17:08:44;;;;;;;;;;;;;;;17.33;100.00;96514.19;10361704;28;1884;-73
2023/09/30 17:13:47;;;;;;;;;;;;;;;17.09;100.00;96531.41;10358156;28;1814;-73
2023/09/30 17:18:49;;;;;;;;;;;;;;;16.96;100.00;96532.16;10363404;28;1952;-74
2023/09/30 17:23:52;;;;;;;;;;;;;;;16.76;100.00;96522.41;10360556;28;2614;-74
2023/09/30 17:28:54;;;;;;;;;;;;;;;16.64;100.00;96517.41;10347190;28;1804;-73
2023/09/30 17:33:57;;;;;;;;;;;;;;;16.49;100.00;96517.63;10370938;28;1816;-74
2023/09/30 17:39:01;;;;;;;;;;;;;;;16.31;100.00;96521.13;10354137;28;2109;-73
2023/09/30 17:44:04;;;;;;;;;;;;;;;16.16;100.00;96524.88;10350426;28;4736;-74
2023/09/30 17:49:07;;;;;;;;;;;;;;;16.10;100.00;96526.81;10355362;28;1818;-74
2023/09/30 17:54:10;;;;;;;;;;;;;;;16.03;100.00;96533.69;10350402;28;1838;-73
2023/09/30 17:59:12;;;;;;;;;;;;;;;15.87;100.00;96533.88;10358202;28;1923;-74
2023/09/30 18:04:15;;;;;;;;;;;;;;;15.94;100.00;96538.94;10367601;28;1533;-72
2023/09/30 18:09:17;;;;;;;;;;;;;;;16.04;100.00;96533.41;10349386;28;2557;-72
2023/09/30 18:14:21;;;;;;;;;;;;;;;16.17;100.00;96537.31;10350799;28;1905;-73
2023/09/30 18:19:23;;;;;;;;;;;;;;;16.25;100.00;96536.66;10348486;28;1914;-74
2023/09/30 18:24:28;;;;;;;;;;;;;;;16.31;100.00;96540.13;10351711;28;1886;-75
2023/09/30 18:29:31;;;;;;;;;;;;;;;16.26;100.00;96549.13;10351275;28;1962;-75
2023/09/30 18:34:33;;;;;;;;;;;;;;;16.16;100.00;96544.66;10352023;28;1854;-74
2023/09/30 18:39:37;;;;;;;;;;;;;;;15.94;100.00;96539.75;10363688;28;1918;-73
2023/09/30 18:44:42;;;;;;;;;;;;;;;15.97;100.00;96549.22;10350320;28;4658;-73
2023/09/30 18:49:44;;;;;;;;;;;;;;;16.17;100.00;96542.75;10349983;28;1803;-75
2023/09/30 18:54:47;;;;;;;;;;;;;;;16.12;100.00;96562.59;10333747;28;2552;-74
2023/09/30 18:59:49;;;;;;;;;;;;;;;15.97;100.00;96557.38;10363350;28;1988;-74
2023/09/30 19:04:52;;;;;;;;;;;;;;;15.83;100.00;96559.13;10358629;28;1826;-74
2023/09/30 19:09:54;;;;;;;;;;;;;;;15.89;100.00;96557.97;10353030;28;1888;-74
2023/09/30 19:14:57;;;;;;;;;;;;;;;15.90;100.00;96563.13;10353361;28;1920;-73
2023/09/30 19:19:59;;;;;;;;;;;;;;;15.94;100.00;96566.06;10351427;28;1914;-73
2023/09/30 19:25:02;;;;;;;;;;;;;;;15.82;100.00;96571.06;10344220;28;1885;-73
2023/09/30 19:30:05;;;;;;;;;;;;;;;15.80;100.00;96575.97;10367736;28;1821;-74
2023/09/30 19:35:07;;;;;;;;;;;;;;;15.79;100.00;96574.38;10361139;28;1653;-72
2023/09/30 19:40:11;;;;;;;;;;;;;;;15.78;100.00;96576.28;10353834;28;4824;-74
2023/09/30 19:45:14;;;;;;;;;;;;;;;15.61;100.00;96573.16;10365625;28;1790;-74
2023/09/30 19:50:16;;;;;;;;;;;;;;;15.66;100.00;96579.38;10376867;28;1849;-74
2023/09/30 19:55:19;;;;;;;;;;;;;;;15.70;100.00;96571.47;10353026;28;2010;-74
2023/09/30 20:00:22;;;;;;;;;;;;;;;15.67;100.00;96578.28;10356447;28;1901;-74
2023/09/30 20:05:25;;;;;;;;;;;;;;;15.65;100.00;96580.47;10367018;28;1737;-72
2023/09/30 20:10:28;;;;;;;;;;;;;;;15.70;100.00;96581.50;10374305;28;1846;-75
2023/09/30 20:15:31;;;;;;;;;;;;;;;15.50;100.00;96585.97;10357272;28;1517;-73
2023/09/30 20:20:33;;;;;;;;;;;;;;;15.41;100.00;96582.28;10333047;28;1983;-73
2023/09/30 20:25:36;;;;;;;;;;;;;;;15.26;100.00;96582.41;10354340;28;2687;-75
2023/09/30 20:30:38;;;;;;;;;;;;;;;15.25;100.00;96572.66;10360988;28;1850;-73
2023/09/30 20:35:41;;;;;;;;;;;;;;;15.07;100.00;96574.16;10352493;28;1936;-73
2023/09/30 20:40:44;;;;;;;;;;;;;;;15.14;100.00;96580.88;10363282;28;1883;-73
2023/09/30 20:45:47;;;;;;;;;;;;;;;15.05;100.00;96581.75;10369142;28;1818;-74
2023/09/30 20:50:49;;;;;;;;;;;;;;;15.04;100.00;96580.94;10353720;28;1830;-74
2023/09/30 20:55:52;;;;;;;;;;;;;;;15.02;100.00;96587.75;10351630;28;1914;-74
2023/09/30 21:00:55;;;;;;;;;;;;;;;14.95;100.00;96582.66;10352811;28;1914;-73
2023/09/30 21:05:57;;;;;;;;;;;;;;;14.88;100.00;96587.53;10355377;28;1842;-73
2023/09/30 21:11:00;;;;;;;;;;;;;;;15.12;100.00;96588.47;10351404;28;2674;-73
2023/09/30 21:16:03;;;;;;;;;;;;;;;14.90;100.00;96596.22;10355766;28;1749;-73
2023/09/30 21:21:06;;;;;;;;;;;;;;;14.74;100.00;96591.97;10357420;28;1943;-73
2023/09/30 21:26:09;;;;;;;;;;;;;;;14.74;100.00;96594.69;10356422;28;2021;-75
2023/09/30 21:31:11;;;;;;;;;;;;;;;14.73;100.00;96590.34;10355041;28;2113;-74
2023/09/30 21:36:14;;;;;;;;;;;;;;;14.75;100.00;96601.72;10348445;28;1869;-74
2023/09/30 21:41:16;;;;;;;;;;;;;;;14.64;100.00;96600.97;10356891;28;4607;-73
2023/09/30 21:46:18;;;;;;;;;;;;;;;14.72;100.00;96607.69;10371622;28;2051;-74
2023/09/30 21:51:21;;;;;;;;;;;;;;;14.64;100.00;96608.28;10347843;28;1874;-73
2023/09/30 21:56:24;;;;;;;;;;;;;;;14.68;100.00;96606.63;10356887;28;2579;-75
2023/09/30 22:01:26;;;;;;;;;;;;;;;14.62;100.00;96618.56;10362754;28;1965;-73
2023/09/30 22:06:29;;;;;;;;;;;;;;;14.65;100.00;96618.00;10346045;28;1989;-72
2023/09/30 22:11:31;;;;;;;;;;;;;;;14.62;100.00;96622.06;10343076;28;1838;-74
2023/09/30 22:16:35;;;;;;;;;;;;;;;14.56;100.00;96629.41;10344870;28;1892;-74
2023/09/30 22:21:38;;;;;;;;;;;;;;;14.62;100.00;96632.09;10345148;28;2034;-76
2023/09/30 22:26:40;;;;;;;;;;;;;;;14.58;100.00;96626.44;10349878;28;1888;-74
2023/09/30 22:31:45;;;;;;;;;;;;;;;14.64;100.00;96629.94;10349349;28;1858;-73
2023/09/30 22:36:48;;;;;;;;;;;;;;;14.49;100.00;96633.50;10418526;28;1972;-75
2023/09/30 22:41:50;;;;;;;;;;;;;;;14.40;100.00;96640.56;10358854;28;4599;-75
2023/09/30 22:46:53;;;;;;;;;;;;;;;14.28;100.00;96644.38;10349959;28;1849;-74
2023/09/30 22:51:56;;;;;;;;;;;;;;;14.09;100.00;96651.47;10346754;28;1893;-75
2023/09/30 22:56:58;;;;;;;;;;;;;;;14.09;100.00;96653.34;10351296;28;1858;-75
2023/09/30 23:02:01;;;;;;;;;;;;;;;13.76;100.00;96653.69;10348876;28;1970;-74
2023/09/30 23:07:04;;;;;;;;;;;;;;;13.26;100.00;96657.22;10360578;28;1822;-72
2023/09/30 23:12:07;;;;;;;;;;;;;;;12.89;100.00;96660.88;10348965;28;2007;-74
2023/09/30 23:17:09;;;;;;;;;;;;;;;12.65;100.00;96657.03;10347357;28;1826;-74
2023/09/30 23:22:13;;;;;;;;;;;;;;;12.49;100.00;96650.78;10348605;28;1993;-76
2023/09/30 23:27:15;;;;;;;;;;;;;;;12.37;100.00;96659.09;10357555;28;2725;-75
2023/09/30 23:32:18;;;;;;;;;;;;;;;12.23;100.00;96657.16;10346764;28;2062;-74
2023/09/30 23:37:21;;;;;;;;;;;;;;;12.18;100.00;96660.63;10351502;28;1886;-76
2023/09/30 23:42:23;;;;;;;;;;;;;;;12.12;100.00;96661.66;10344641;28;2094;-76
2023/09/30 23:47:26;;;;;;;;;;;;;;;12.04;100.00;96662.97;10346397;28;1858;-76
2023/09/30 23:52:51;;;;;;;;;;;;;;;11.95;100.00;96661.03;10341757;28;1837;-75
2023/09/30 23:57:54;;;;;;;;;;;;;;;11.89;100.00;96668.25;10344155;28;1881;-75
